Central Nebraska Regional Airport


Codes: KGRI/GRI
Name: Central Nebraska Regional Airport
City: Grand Island
Country: United States
Elevation: 1847 ft.
Wikipedia:

Photos at Central Nebraska Regional Airport


   Photos courtesy of SpottingLog. You can add your own sightings and photos by signing up for a free trial today.



No photos found.

Weather at Central Nebraska Regional Airport


Time (UTC)DescriptionTempratureWindCloud coverageVisibilityPressureHumidity
25-Jun-2024 15:00Scattered Clouds27°C4 mph, SE41%10000m1007hPa60%
25-Jun-2024 18:00Few Clouds30°C2 mph, S22%10000m1006hPa50%
25-Jun-2024 21:00Clear Sky35°C2 mph, W0%10000m1005hPa38%
26-Jun-2024 00:00Clear Sky31°C11 mph, NE0%10000m1005hPa63%
26-Jun-2024 03:00Clear Sky25°C9 mph, NE0%10000m1008hPa75%
26-Jun-2024 06:00Clear Sky22°C9 mph, NE0%10000m1011hPa92%
26-Jun-2024 09:00Clear Sky21°C7 mph, NW0%10000m1012hPa96%
26-Jun-2024 12:00Clear Sky21°C11 mph, NE3%10000m1013hPa90%
26-Jun-2024 15:00Clear Sky24°C13 mph, E6%10000m1015hPa72%
26-Jun-2024 18:00Clear Sky27°C11 mph, E7%10000m1015hPa60%
26-Jun-2024 21:00Clear Sky28°C11 mph, E2%10000m1014hPa56%
27-Jun-2024 00:00Clear Sky26°C11 mph, E7%10000m1011hPa65%
27-Jun-2024 03:00Broken Clouds22°C7 mph, E57%10000m1014hPa74%
27-Jun-2024 06:00Broken Clouds21°C11 mph, SE78%10000m1013hPa63%
27-Jun-2024 09:00Light Rain18°C13 mph, SE100%10000m1012hPa88%
27-Jun-2024 12:00Light Rain18°C16 mph, SE100%10000m1012hPa94%
27-Jun-2024 15:00Overcast Clouds21°C18 mph, SE92%10000m1010hPa80%
27-Jun-2024 18:00Light Rain21°C13 mph, SE96%10000m1008hPa85%
27-Jun-2024 21:00Overcast Clouds22°C13 mph, SE100%10000m1006hPa86%
28-Jun-2024 00:00Overcast Clouds21°C16 mph, SE100%10000m1004hPa89%
28-Jun-2024 03:00Light Rain20°C16 mph, SE100%10000m1002hPa96%
28-Jun-2024 06:00Moderate Rain20°C13 mph, S100%10000m1002hPa98%
28-Jun-2024 09:00Light Rain20°C9 mph, S99%10000m999hPa98%
28-Jun-2024 12:00Overcast Clouds20°C4 mph, S94%10000m1000hPa97%
28-Jun-2024 15:00Broken Clouds26°C7 mph, W80%10000m1001hPa75%
28-Jun-2024 18:00Scattered Clouds29°C11 mph, NW41%10000m1001hPa61%
28-Jun-2024 21:00Few Clouds29°C11 mph, N15%10000m1002hPa58%
29-Jun-2024 00:00Few Clouds27°C11 mph, N22%10000m1005hPa67%
29-Jun-2024 03:00Overcast Clouds23°C9 mph, N100%10000m1009hPa74%
29-Jun-2024 06:00Overcast Clouds20°C7 mph, N93%10000m1010hPa70%
29-Jun-2024 09:00Clear Sky18°C9 mph, N4%10000m1013hPa73%
29-Jun-2024 12:00Clear Sky16°C9 mph, N3%10000m1018hPa72%
29-Jun-2024 15:00Clear Sky19°C16 mph, N0%10000m1020hPa68%
29-Jun-2024 18:00Clear Sky21°C13 mph, N2%10000m1020hPa60%
29-Jun-2024 21:00Scattered Clouds22°C11 mph, NE27%10000m1021hPa60%
30-Jun-2024 00:00Few Clouds20°C11 mph, NE24%10000m1021hPa65%
30-Jun-2024 03:00Few Clouds15°C9 mph, NE18%10000m1023hPa82%
30-Jun-2024 06:00Scattered Clouds13°C7 mph, E25%10000m1025hPa87%
30-Jun-2024 09:00Broken Clouds12°C7 mph, E68%10000m1024hPa89%
30-Jun-2024 12:00Broken Clouds12°C9 mph, E69%10000m1025hPa90%